Time,TemperatureF,DewpointF,PressureIn,WindDirection,WindDirectionDegrees,WindSpeedMPH,WindSpeedGustMPH,Humidity,HourlyPrecipIn,Conditions,Clouds,dailyrainin,SoftwareType,DateUTC
2013-05-31 00:12:00,65.3,62.0,30.06,North,360,0.0,0.0,90,0.00,,,0.00,weatherlink.com 1.10,2013-05-31 04:12:00,
2013-05-31 00:27:00,65.1,62.0,30.07,North,360,0.0,0.0,90,0.00,,,0.00,weatherlink.com 1.10,2013-05-31 04:27:00,
2013-05-31 00:42:00,64.8,62.0,30.07,North,360,0.0,0.0,91,0.00,,,0.00,weatherlink.com 1.10,2013-05-31 04:42:00,
2013-05-31 00:57:00,64.7,62.0,30.07,North,360,0.0,0.0,92,0.00,,,0.00,weatherlink.com 1.10,2013-05-31 04:57:00,
2013-05-31 01:12:00,64.9,63.0,30.07,North,360,0.0,1.0,92,0.00,,,0.00,weatherlink.com 1.10,2013-05-31 05:12:00,
2013-05-31 01:27:00,64.6,62.0,30.07,North,360,0.0,0.0,92,0.00,,,0.00,weatherlink.com 1.10,2013-05-31 05:27:00,
2013-05-31 01:42:00,64.6,63.0,30.07,North,360,0.0,0.0,94,0.00,,,0.00,weatherlink.com 1.10,2013-05-31 05:42:00,
2013-05-31 01:57:00,64.5,63.0,30.07,North,360,0.0,0.0,93,0.00,,,0.00,weatherlink.com 1.10,2013-05-31 05:57:00,
2013-05-31 02:12:00,64.0,62.0,30.07,North,360,0.0,1.0,94,0.00,,,0.00,weatherlink.com 1.10,2013-05-31 06:12:00,
2013-05-31 02:27:00,64.2,62.0,30.06,North,360,0.0,1.0,93,0.00,,,0.00,weatherlink.com 1.10,2013-05-31 06:27:00,
2013-05-31 02:42:00,64.1,62.0,30.06,North,5,0.0,0.0,94,0.00,,,0.00,weatherlink.com 1.10,2013-05-31 06:42:00,
2013-05-31 02:57:00,64.1,62.0,30.05,North,5,0.0,0.0,94,0.00,,,0.00,weatherlink.com 1.10,2013-05-31 06:57:00,
2013-05-31 03:12:00,64.1,62.0,30.06,North,5,0.0,0.0,94,0.00,,,0.00,weatherlink.com 1.10,2013-05-31 07:12:00,
2013-05-31 03:27:00,64.1,63.0,30.05,North,5,0.0,0.0,95,0.00,,,0.00,weatherlink.com 1.10,2013-05-31 07:27:00,
2013-05-31 03:42:00,64.1,63.0,30.05,North,5,0.0,0.0,95,0.00,,,0.00,weatherlink.com 1.10,2013-05-31 07:42:00,
2013-05-31 03:57:00,64.1,63.0,30.05,North,5,0.0,0.0,95,0.00,,,0.00,weatherlink.com 1.10,2013-05-31 07:57:00,
2013-05-31 04:13:00,64.0,62.0,30.05,North,5,0.0,0.0,94,0.00,,,0.00,weatherlink.com 1.10,2013-05-31 08:13:00,
2013-05-31 04:28:00,63.9,62.0,30.06,North,5,0.0,0.0,94,0.00,,,0.00,weatherlink.com 1.10,2013-05-31 08:28:00,
2013-05-31 04:43:00,63.8,62.0,30.06,North,5,0.0,0.0,94,0.00,,,0.00,weatherlink.com 1.10,2013-05-31 08:43:00,
2013-05-31 04:58:00,63.8,62.0,30.05,North,5,0.0,0.0,95,0.00,,,0.00,weatherlink.com 1.10,2013-05-31 08:58:00,
2013-05-31 05:13:00,63.4,62.0,30.05,North,5,0.0,0.0,94,0.00,,,0.00,weatherlink.com 1.10,2013-05-31 09:13:00,
2013-05-31 05:28:00,63.1,62.0,30.06,North,5,0.0,0.0,95,0.00,,,0.00,weatherlink.com 1.10,2013-05-31 09:28:00,
2013-05-31 05:43:00,62.9,62.0,30.06,North,5,0.0,0.0,95,0.00,,,0.00,weatherlink.com 1.10,2013-05-31 09:43:00,
2013-05-31 05:58:00,63.0,62.0,30.07,North,5,0.0,0.0,95,0.00,,,0.00,weatherlink.com 1.10,2013-05-31 09:58:00,
2013-05-31 06:13:00,63.3,62.0,30.07,North,5,0.0,1.0,94,0.00,,,0.00,weatherlink.com 1.10,2013-05-31 10:13:00,
2013-05-31 06:28:00,63.6,62.0,30.07,North,5,0.0,2.0,94,0.00,,,0.00,weatherlink.com 1.10,2013-05-31 10:28:00,
2013-05-31 06:43:00,64.0,62.0,30.08,North,10,0.0,2.0,94,0.00,,,0.00,weatherlink.com 1.10,2013-05-31 10:43:00,
2013-05-31 06:58:00,64.8,63.0,30.08,North,11,0.0,2.0,93,0.00,,,0.00,weatherlink.com 1.10,2013-05-31 10:58:00,
2013-05-31 07:13:00,65.5,63.0,30.08,NNE,14,0.0,2.0,92,0.00,,,0.00,weatherlink.com 1.10,2013-05-31 11:13:00,
2013-05-31 07:28:00,66.3,64.0,30.08,North,355,0.0,2.0,92,0.00,,,0.00,weatherlink.com 1.10,2013-05-31 11:28:00,
2013-05-31 07:43:00,67.2,65.0,30.07,NNE,17,1.0,3.0,92,0.00,,,0.00,weatherlink.com 1.10,2013-05-31 11:43:00,
2013-05-31 07:58:00,68.6,66.0,30.08,NNE,19,0.0,2.0,90,0.00,,,0.00,weatherlink.com 1.10,2013-05-31 11:58:00,
2013-05-31 08:13:00,70.2,67.0,30.08,NNE,19,0.0,0.0,88,0.00,,,0.00,weatherlink.com 1.10,2013-05-31 12:13:00,
2013-05-31 08:28:00,72.0,68.0,30.07,NNE,19,0.0,0.0,87,0.00,,,0.00,weatherlink.com 1.10,2013-05-31 12:28:00,
2013-05-31 08:43:00,73.6,67.0,30.07,NNE,19,0.0,0.0,81,0.00,,,0.00,weatherlink.com 1.10,2013-05-31 12:43:00,
2013-05-31 08:58:00,76.0,68.0,30.07,NNE,19,0.0,1.0,75,0.00,,,0.00,weatherlink.com 1.10,2013-05-31 12:58:00,
2013-05-31 09:13:00,77.2,67.0,30.07,NNW,348,0.0,1.0,71,0.00,,,0.00,weatherlink.com 1.10,2013-05-31 13:13:00,
2013-05-31 09:28:00,78.3,67.0,30.06,NNE,24,0.0,0.0,69,0.00,,,0.00,weatherlink.com 1.10,2013-05-31 13:28:00,
2013-05-31 09:43:00,79.3,65.0,30.06,NNE,30,0.0,2.0,62,0.00,,,0.00,weatherlink.com 1.10,2013-05-31 13:43:00,
2013-05-31 09:58:00,80.1,67.0,30.06,ESE,123,0.0,2.0,64,0.00,,,0.00,weatherlink.com 1.10,2013-05-31 13:58:00,
2013-05-31 10:13:00,81.1,64.0,30.05,ENE,76,0.0,3.0,57,0.00,,,0.00,weatherlink.com 1.10,2013-05-31 14:13:00,
2013-05-31 10:28:00,81.5,63.0,30.05,SE,144,0.0,2.0,53,0.00,,,0.00,weatherlink.com 1.10,2013-05-31 14:28:00,
2013-05-31 10:43:00,82.8,62.0,30.05,SSW,211,1.0,3.0,50,0.00,,,0.00,weatherlink.com 1.10,2013-05-31 14:43:00,
2013-05-31 10:59:00,83.7,62.0,30.04,SE,138,2.0,4.0,48,0.00,,,0.00,weatherlink.com 1.10,2013-05-31 14:59:00,
2013-05-31 11:14:00,84.0,61.0,30.04,NE,51,0.0,2.0,46,0.00,,,0.00,weatherlink.com 1.10,2013-05-31 15:14:00,
2013-05-31 11:29:00,85.0,59.0,30.04,SSW,203,0.0,4.0,41,0.00,,,0.00,weatherlink.com 1.10,2013-05-31 15:29:00,
2013-05-31 11:44:00,85.4,60.0,30.04,East,83,2.0,6.0,42,0.00,,,0.00,weatherlink.com 1.10,2013-05-31 15:44:00,
2013-05-31 11:59:00,85.8,59.0,30.03,SSE,165,0.0,3.0,40,0.00,,,0.00,weatherlink.com 1.10,2013-05-31 15:59:00,
2013-05-31 12:14:00,85.9,59.0,30.02,SSW,192,1.0,2.0,40,0.00,,,0.00,weatherlink.com 1.10,2013-05-31 16:14:00,
2013-05-31 12:29:00,85.2,66.0,30.02,WSW,238,2.0,5.0,52,0.00,,,0.00,weatherlink.com 1.10,2013-05-31 16:29:00,
2013-05-31 12:44:00,83.8,64.0,30.02,SSW,198,0.0,3.0,51,0.00,,,0.00,weatherlink.com 1.10,2013-05-31 16:44:00,
2013-05-31 12:59:00,83.8,64.0,30.01,SW,215,0.0,2.0,52,0.00,,,0.00,weatherlink.com 1.10,2013-05-31 16:59:00,
2013-05-31 13:14:00,84.4,63.0,30.00,WSW,248,2.0,3.0,49,0.00,,,0.00,weatherlink.com 1.10,2013-05-31 17:14:00,
2013-05-31 13:29:00,85.7,62.0,30.00,South,190,2.0,5.0,45,0.00,,,0.00,weatherlink.com 1.10,2013-05-31 17:29:00,
2013-05-31 13:44:00,85.9,62.0,29.99,SSW,195,2.0,4.0,45,0.00,,,0.00,weatherlink.com 1.10,2013-05-31 17:44:00,
2013-05-31 13:59:00,85.5,64.0,29.99,SSW,195,2.0,2.0,49,0.00,,,0.00,weatherlink.com 1.10,2013-05-31 17:59:00,
2013-05-31 14:14:00,85.3,63.0,29.99,South,174,0.0,3.0,48,0.00,,,0.00,weatherlink.com 1.10,2013-05-31 18:14:00,
2013-05-31 14:29:00,84.7,66.0,29.98,South,191,0.0,3.0,53,0.00,,,0.00,weatherlink.com 1.10,2013-05-31 18:29:00,
2013-05-31 14:44:00,84.6,64.0,29.98,SSW,200,1.0,4.0,51,0.00,,,0.00,weatherlink.com 1.10,2013-05-31 18:44:00,
2013-05-31 14:59:00,85.7,65.0,29.98,SW,232,3.0,3.0,50,0.00,,,0.00,weatherlink.com 1.10,2013-05-31 18:59:00,
2013-05-31 15:14:00,85.6,65.0,29.98,ENE,67,1.0,2.0,51,0.00,,,0.00,weatherlink.com 1.10,2013-05-31 19:14:00,
2013-05-31 15:29:00,86.6,62.0,29.97,SSE,163,0.0,2.0,43,0.00,,,0.00,weatherlink.com 1.10,2013-05-31 19:29:00,
2013-05-31 15:44:00,85.9,63.0,29.97,SSW,203,2.0,4.0,47,0.00,,,0.00,weatherlink.com 1.10,2013-05-31 19:44:00,
2013-05-31 15:59:00,84.3,65.0,29.96,SW,215,0.0,0.0,52,0.00,,,0.00,weatherlink.com 1.10,2013-05-31 19:59:00,
2013-05-31 16:14:00,83.8,66.0,29.96,SSE,147,0.0,3.0,55,0.00,,,0.00,weatherlink.com 1.10,2013-05-31 20:14:00,
2013-05-31 16:29:00,84.4,66.0,29.96,SSW,209,1.0,2.0,55,0.00,,,0.00,weatherlink.com 1.10,2013-05-31 20:29:00,
2013-05-31 16:44:00,84.9,64.0,29.96,South,186,2.0,5.0,49,0.00,,,0.00,weatherlink.com 1.10,2013-05-31 20:44:00,
2013-05-31 16:59:00,84.2,64.0,29.95,SSW,196,1.0,3.0,51,0.00,,,0.00,weatherlink.com 1.10,2013-05-31 20:59:00,
2013-05-31 17:14:00,84.0,63.0,29.95,SSW,204,0.0,5.0,50,0.00,,,0.00,weatherlink.com 1.10,2013-05-31 21:14:00,
2013-05-31 17:29:00,82.9,64.0,29.94,SSW,200,4.0,4.0,53,0.00,,,0.00,weatherlink.com 1.10,2013-05-31 21:29:00,
2013-05-31 17:44:00,82.6,65.0,29.94,SE,144,0.0,3.0,55,0.00,,,0.00,weatherlink.com 1.10,2013-05-31 21:44:00,
2013-05-31 17:59:00,82.0,63.0,29.94,NNE,19,0.0,2.0,53,0.00,,,0.00,weatherlink.com 1.10,2013-05-31 21:59:00,
2013-05-31 18:14:00,81.6,63.0,29.93,East,84,0.0,2.0,53,0.00,,,0.00,weatherlink.com 1.10,2013-05-31 22:14:00,
2013-05-31 18:29:00,80.8,64.0,29.93,East,84,0.0,0.0,56,0.00,,,0.00,weatherlink.com 1.10,2013-05-31 22:29:00,
2013-05-31 18:44:00,80.1,64.0,29.93,East,84,0.0,0.0,58,0.00,,,0.00,weatherlink.com 1.10,2013-05-31 22:44:00,
2013-05-31 18:59:00,79.4,65.0,29.93,East,84,0.0,0.0,61,0.00,,,0.00,weatherlink.com 1.10,2013-05-31 22:59:00,
2013-05-31 19:14:00,78.7,65.0,29.92,East,84,0.0,0.0,63,0.00,,,0.00,weatherlink.com 1.10,2013-05-31 23:14:00,
2013-05-31 19:29:00,78.0,65.0,29.93,East,84,0.0,0.0,64,0.00,,,0.00,weatherlink.com 1.10,2013-05-31 23:29:00,
2013-05-31 19:44:00,77.7,65.0,29.93,East,84,0.0,0.0,64,0.00,,,0.00,weatherlink.com 1.10,2013-05-31 23:44:00,
2013-05-31 20:00:00,77.5,64.0,29.93,ENE,69,0.0,1.0,64,0.00,,,0.00,weatherlink.com 1.10,2013-06-01 00:00:00,
2013-05-31 20:15:00,76.9,64.0,29.93,ENE,69,0.0,1.0,65,0.00,,,0.00,weatherlink.com 1.10,2013-06-01 00:15:00,
2013-05-31 20:30:00,76.5,64.0,29.93,ENE,69,0.0,1.0,66,0.00,,,0.00,weatherlink.com 1.10,2013-06-01 00:30:00,
2013-05-31 20:45:00,75.6,65.0,29.94,NNE,15,1.0,2.0,70,0.00,,,0.00,weatherlink.com 1.10,2013-06-01 00:45:00,
2013-05-31 21:00:00,74.6,65.0,29.94,NNE,32,1.0,2.0,73,0.00,,,0.00,weatherlink.com 1.10,2013-06-01 01:00:00,
2013-05-31 21:15:00,73.0,65.0,29.95,NNE,26,0.0,2.0,76,0.00,,,0.00,weatherlink.com 1.10,2013-06-01 01:15:00,
2013-05-31 21:30:00,71.3,65.0,29.95,NNE,26,0.0,0.0,80,0.00,,,0.00,weatherlink.com 1.10,2013-06-01 01:30:00,
2013-05-31 21:45:00,70.2,65.0,29.96,NNE,26,0.0,0.0,82,0.00,,,0.00,weatherlink.com 1.10,2013-06-01 01:45:00,
2013-05-31 22:00:00,69.6,64.0,29.96,NNE,26,0.0,0.0,83,0.00,,,0.00,weatherlink.com 1.10,2013-06-01 02:00:00,
2013-05-31 22:15:00,69.1,64.0,29.96,NNE,26,0.0,0.0,83,0.00,,,0.00,weatherlink.com 1.10,2013-06-01 02:15:00,
2013-05-31 22:30:00,68.5,64.0,29.96,NNE,27,0.0,0.0,84,0.00,,,0.00,weatherlink.com 1.10,2013-06-01 02:30:00,
2013-05-31 22:45:00,68.0,63.0,29.96,NNE,27,0.0,0.0,85,0.00,,,0.00,weatherlink.com 1.10,2013-06-01 02:45:00,
2013-05-31 23:00:00,67.6,63.0,29.96,NNE,27,0.0,0.0,86,0.00,,,0.00,weatherlink.com 1.10,2013-06-01 03:00:00,
2013-05-31 23:15:00,67.3,63.0,29.95,NNE,27,0.0,0.0,86,0.00,,,0.00,weatherlink.com 1.10,2013-06-01 03:15:00,
2013-05-31 23:30:00,67.3,63.0,29.96,NNE,27,0.0,0.0,86,0.00,,,0.00,weatherlink.com 1.10,2013-06-01 03:30:00,
2013-05-31 23:45:00,67.1,63.0,29.96,NNE,27,0.0,0.0,85,0.00,,,0.00,weatherlink.com 1.10,2013-06-01 03:45:00,